Time;durP1;ratioP1;P1;durP2;ratioP2;P2;SDS_P1;SDS_P2;PMS_P1;PMS_P2;Temp;Humidity;BMP_temperature;BMP_pressure;BME280_temperature;BME280_humidity;BME280_pressure;Samples;Min_cycle;Max_cycle;Signal;HPM_P1;HPM_P2
2023/01/02 00:01:38;;;;;;;5.10;2.15;;;8.80;96.30;;;;;;5055316;28;20048;-74
2023/01/02 00:04:04;;;;;;;5.55;2.58;;;8.80;96.30;;;;;;5071812;28;20049;-73
2023/01/02 00:06:35;;;;;;;9.55;2.20;;;8.80;96.30;;;;;;5072071;28;20120;-74
2023/01/02 00:09:05;;;;;;;6.47;3.03;;;8.80;96.40;;;;;;5071798;28;20079;-72
2023/01/02 00:11:32;;;;;;;6.88;3.20;;;8.80;96.50;;;;;;5071806;28;20131;-73
2023/01/02 00:13:58;;;;;;;6.32;2.50;;;8.80;96.50;;;;;;5071706;28;20066;-73
2023/01/02 00:16:24;;;;;;;7.47;2.60;;;8.80;96.50;;;;;;5055128;28;20509;-72
2023/01/02 00:18:49;;;;;;;8.05;2.50;;;8.80;96.50;;;;;;5071621;28;20052;-75
2023/01/02 00:21:15;;;;;;;6.32;2.30;;;8.80;96.60;;;;;;5071672;28;20048;-73
2023/01/02 00:23:41;;;;;;;6.90;2.10;;;8.80;96.70;;;;;;5071443;28;20061;-77
2023/01/02 00:26:07;;;;;;;4.68;2.20;;;8.80;96.80;;;;;;5071600;28;20047;-76
2023/01/02 00:28:34;;;;;;;5.13;2.35;;;8.80;96.70;;;;;;5071494;28;20044;-73
2023/01/02 00:31:11;;;;;;;6.28;2.42;;;8.80;96.70;;;;;;5071588;28;20094;-74
2023/01/02 00:33:37;;;;;;;5.65;2.50;;;8.90;96.80;;;;;;5071505;28;20075;-73
2023/01/02 00:36:07;;;;;;;6.85;3.30;;;8.80;96.80;;;;;;5071779;28;20087;-73
2023/01/02 00:38:33;;;;;;;5.65;2.88;;;8.90;96.70;;;;;;5071563;28;20044;-74
2023/01/02 00:40:59;;;;;;;5.38;3.13;;;8.90;96.80;;;;;;5055093;28;20396;-75
2023/01/02 00:43:26;;;;;;;6.72;4.10;;;9.00;97.10;;;;;;5071578;28;20481;-76
2023/01/02 00:45:52;;;;;;;8.52;4.22;;;9.00;96.90;;;;;;5071382;28;20048;-74
2023/01/02 00:48:17;;;;;;;6.15;4.22;;;9.00;97.00;;;;;;5054657;28;20053;-73
2023/01/02 00:50:44;;;;;;;6.97;4.30;;;9.00;97.10;;;;;;5071405;28;20202;-74
2023/01/02 00:53:09;;;;;;;8.85;5.65;;;9.10;96.90;;;;;;5071260;28;20071;-75
2023/01/02 00:55:35;;;;;;;8.90;6.03;;;9.10;97.20;;;;;;5071380;28;20040;-74
2023/01/02 00:58:00;;;;;;;13.70;6.63;;;9.10;97.20;;;;;;5038073;28;20048;-72
2023/01/02 01:00:26;;;;;;;10.13;7.20;;;9.20;97.30;;;;;;5071220;28;20040;-72
2023/01/02 01:02:58;;;;;;;11.57;8.32;;;9.30;97.50;;;;;;5072454;28;20064;-74
2023/01/02 01:05:25;;;;;;;13.82;8.20;;;9.40;97.90;;;;;;5071674;28;20094;-75
2023/01/02 01:07:51;;;;;;;12.52;8.65;;;9.50;98.00;;;;;;5071132;28;20508;-73
2023/01/02 01:10:16;;;;;;;13.00;9.70;;;9.50;98.50;;;;;;5071132;28;20094;-74
2023/01/02 01:12:42;;;;;;;15.85;9.25;;;9.60;98.10;;;;;;5071134;28;20039;-75
2023/01/02 01:15:08;;;;;;;14.05;8.95;;;9.70;98.70;;;;;;5074060;28;20123;-75
2023/01/02 01:17:34;;;;;;;12.50;9.20;;;9.80;98.50;;;;;;5075136;28;20037;-72
2023/01/02 01:19:59;;;;;;;10.30;8.07;;;9.80;98.60;;;;;;5075121;28;20032;-74
2023/01/02 01:22:25;;;;;;;12.73;8.32;;;9.90;99.00;;;;;;5057992;28;20048;-74
2023/01/02 01:24:51;;;;;;;10.05;7.47;;;9.90;98.70;;;;;;5058096;28;20048;-73
2023/01/02 01:27:17;;;;;;;10.93;7.70;;;10.00;99.10;;;;;;5041587;28;20045;-73
2023/01/02 01:29:42;;;;;;;12.35;8.15;;;10.00;99.20;;;;;;5074584;28;20040;-73
2023/01/02 01:32:08;;;;;;;12.93;7.90;;;10.00;98.80;;;;;;5074616;28;20450;-72
2023/01/02 01:34:34;;;;;;;12.73;7.88;;;10.00;98.70;;;;;;5074623;28;20047;-74
2023/01/02 01:36:59;;;;;;;13.55;7.85;;;10.00;98.90;;;;;;5074540;28;20048;-74
2023/01/02 01:39:25;;;;;;;12.52;7.20;;;10.00;98.90;;;;;;5074523;28;20189;-73
2023/01/02 01:41:51;;;;;;;12.60;7.47;;;10.00;98.90;;;;;;5074646;28;20055;-75
2023/01/02 01:44:49;;;;;;;10.57;8.18;;;10.00;98.80;;;;;;5074316;28;20046;-74
2023/01/02 01:47:40;;;;;;;12.93;7.93;;;10.00;98.90;;;;;;5074612;28;20384;-74
2023/01/02 01:50:18;;;;;;;14.73;9.10;;;10.00;98.80;;;;;;5057678;28;20145;-73
2023/01/02 01:52:49;;;;;;;12.80;8.10;;;10.00;98.30;;;;;;5074179;28;20041;-73
2023/01/02 01:55:17;;;;;;;14.95;8.57;;;10.00;98.60;;;;;;5074263;28;20131;-74
2023/01/02 01:57:48;;;;;;;12.20;8.82;;;10.00;98.70;;;;;;5074149;28;20040;-74
2023/01/02 02:00:15;;;;;;;16.90;9.40;;;10.00;98.50;;;;;;5074344;28;20047;-74
2023/01/02 02:02:45;;;;;;;10.45;7.88;;;10.00;98.80;;;;;;5074078;28;20480;-74
2023/01/02 02:05:16;;;;;;;11.32;9.20;;;10.00;98.50;;;;;;5074016;28;20493;-76
2023/01/02 02:07:48;;;;;;;13.88;9.63;;;10.00;98.50;;;;;;5057220;28;20484;-74
2023/01/02 02:10:14;;;;;;;17.10;11.32;;;10.00;98.40;;;;;;5057277;28;20067;-73
2023/01/02 02:12:39;;;;;;;17.85;11.40;;;10.00;98.40;;;;;;5073865;28;20079;-73
2023/01/02 02:15:09;;;;;;;20.27;13.75;;;10.00;98.40;;;;;;5074173;28;20037;-74
2023/01/02 02:17:40;;;;;;;19.95;13.30;;;10.00;98.50;;;;;;5073761;28;20043;-73
2023/01/02 02:20:30;;;;;;;22.15;13.55;;;10.10;98.70;;;;;;5074048;28;20040;-72
2023/01/02 02:23:32;;;;;;;21.40;13.73;;;10.10;98.80;;;;;;5073504;28;20106;-72
2023/01/02 02:26:21;;;;;;;21.73;15.88;;;10.10;98.70;;;;;;5072631;28;20387;-72
2023/01/02 02:29:13;;;;;;;29.65;17.30;;;10.10;98.70;;;;;;5073596;28;20045;-72
2023/01/02 02:31:53;;;;;;;25.10;16.80;;;10.20;99.40;;;;;;5073522;28;20075;-73
2023/01/02 02:34:38;;;;;;;23.33;16.65;;;10.20;99.10;;;;;;5073477;28;20036;-74
2023/01/02 02:37:22;;;;;;;28.55;18.92;;;10.30;99.00;;;;;;5073469;28;20120;-73
2023/01/02 02:40:26;;;;;;;31.63;19.65;;;10.30;99.10;;;;;;5073708;28;20148;-71
2023/01/02 02:43:07;;;;;;;27.67;19.40;;;10.30;99.10;;;;;;5068862;28;20048;-72
2023/01/02 02:46:10;;;;;;;31.80;20.33;;;10.30;98.90;;;;;;5073238;28;20123;-75
2023/01/02 02:48:56;;;;;;;38.28;21.70;;;10.30;99.30;;;;;;5073171;28;20667;-72
2023/01/02 02:51:35;;;;;;;36.05;21.05;;;10.30;99.20;;;;;;5074284;28;20178;-74
2023/01/02 02:54:28;;;;;;;31.00;20.80;;;10.30;99.20;;;;;;5073036;28;20127;-73
2023/01/02 02:56:55;;;;;;;33.72;20.17;;;10.30;99.30;;;;;;5070575;28;20053;-74
2023/01/02 02:59:21;;;;;;;30.40;20.45;;;10.30;98.80;;;;;;5072928;28;20051;-75
2023/01/02 03:01:46;;;;;;;38.17;21.20;;;10.30;98.90;;;;;;5056201;28;20123;-74
2023/01/02 03:04:17;;;;;;;30.92;19.10;;;10.20;99.20;;;;;;5073330;28;20090;-74
2023/01/02 03:07:07;;;;;;;35.20;21.85;;;10.30;99.00;;;;;;5056189;28;20150;-74
2023/01/02 03:09:47;;;;;;;37.20;21.95;;;10.30;99.20;;;;;;5072688;28;20048;-73
2023/01/02 03:12:16;;;;;;;35.88;21.83;;;10.30;98.90;;;;;;5072665;28;20036;-74
2023/01/02 03:15:07;;;;;;;33.80;21.40;;;10.30;99.00;;;;;;5072684;28;20040;-75
2023/01/02 03:17:46;;;;;;;34.83;21.58;;;10.30;99.10;;;;;;5072665;28;20045;-75
2023/01/02 03:20:17;;;;;;;33.60;20.75;;;10.30;99.40;;;;;;5072565;28;20043;-72
2023/01/02 03:22:49;;;;;;;35.38;20.45;;;10.30;99.20;;;;;;5072330;28;20083;-73
2023/01/02 03:25:15;;;;;;;36.20;19.30;;;10.40;99.30;;;;;;5072775;28;20044;-74
2023/01/02 03:27:45;;;;;;;30.15;18.45;;;10.50;99.00;;;;;;5072621;28;20052;-72
2023/01/02 03:30:20;;;;;;;29.60;17.92;;;10.40;98.90;;;;;;5072390;28;20086;-72
2023/01/02 03:32:51;;;;;;;31.33;18.73;;;10.50;99.30;;;;;;5055611;28;20094;-74
2023/01/02 03:35:23;;;;;;;33.55;20.13;;;10.40;99.10;;;;;;5072296;28;20072;-72
2023/01/02 03:37:53;;;;;;;36.58;20.15;;;10.40;99.10;;;;;;5071937;28;20041;-71
2023/01/02 03:40:24;;;;;;;34.67;20.13;;;10.40;99.20;;;;;;5072187;28;20037;-73
2023/01/02 03:43:10;;;;;;;37.10;20.23;;;10.40;99.20;;;;;;5072416;28;20392;-73
2023/01/02 03:45:43;;;;;;;31.00;20.73;;;10.50;99.30;;;;;;5072090;28;20044;-75
2023/01/02 03:48:24;;;;;;;28.10;18.30;;;10.50;99.60;;;;;;5055469;28;20127;-72
2023/01/02 03:50:52;;;;;;;35.13;21.73;;;10.50;99.20;;;;;;5072040;28;20047;-74
2023/01/02 03:53:19;;;;;;;30.63;20.08;;;10.50;99.50;;;;;;5071927;28;20048;-76
2023/01/02 03:56:22;;;;;;;34.80;20.75;;;10.50;99.60;;;;;;5071913;28;20082;-74
2023/01/02 03:59:14;;;;;;;30.27;19.85;;;10.60;99.60;;;;;;5072257;28;20045;-76
2023/01/02 04:01:49;;;;;;;28.60;17.75;;;10.60;99.40;;;;;;5072075;28;20049;-74
2023/01/02 04:04:42;;;;;;;28.00;20.02;;;10.60;99.10;;;;;;5072199;28;20083;-73
2023/01/02 04:07:12;;;;;;;33.03;20.13;;;10.60;99.10;;;;;;5071832;28;20041;-75
2023/01/02 04:09:40;;;;;;;28.70;18.30;;;10.60;99.30;;;;;;5071674;28;20441;-72
2023/01/02 04:12:15;;;;;;;35.25;19.77;;;10.60;99.00;;;;;;5071677;28;20047;-72
2023/01/02 04:14:48;;;;;;;35.80;22.13;;;10.60;98.90;;;;;;5071709;28;20039;-74
2023/01/02 04:17:16;;;;;;;37.55;20.77;;;10.60;99.20;;;;;;5071760;28;20097;-73
2023/01/02 04:19:53;;;;;;;31.67;19.67;;;10.60;99.10;;;;;;5055231;28;20037;-75
2023/01/02 04:22:35;;;;;;;34.90;21.85;;;10.60;99.00;;;;;;5071382;28;20059;-75
2023/01/02 04:25:08;;;;;;;35.08;21.45;;;10.60;99.10;;;;;;5071894;28;20135;-75
2023/01/02 04:27:52;;;;;;;37.92;22.10;;;10.60;99.10;;;;;;5071612;28;20055;-74
2023/01/02 04:30:18;;;;;;;33.08;20.10;;;10.60;99.10;;;;;;5071559;28;20044;-73
2023/01/02 04:32:46;;;;;;;34.20;20.67;;;10.50;99.00;;;;;;5071476;28;20089;-73
2023/01/02 04:35:18;;;;;;;40.13;21.90;;;10.60;99.10;;;;;;5071441;28;20045;-72
2023/01/02 04:37:44;;;;;;;33.67;21.00;;;10.60;99.20;;;;;;5071474;28;20521;-74
2023/01/02 04:40:20;;;;;;;36.00;19.85;;;10.60;99.20;;;;;;5071752;28;20035;-75
2023/01/02 04:42:46;;;;;;;30.73;20.60;;;10.60;99.10;;;;;;5071439;28;20049;-73
2023/01/02 04:45:12;;;;;;;31.98;19.98;;;10.60;99.00;;;;;;5071519;28;20047;-75
2023/01/02 04:47:38;;;;;;;34.47;19.77;;;10.50;99.00;;;;;;5071313;28;20045;-76
2023/01/02 04:50:05;;;;;;;32.03;18.95;;;10.60;99.30;;;;;;5057755;28;20127;-74
2023/01/02 04:52:30;;;;;;;24.17;15.65;;;10.60;99.30;;;;;;5075363;28;20047;-76
2023/01/02 04:54:56;;;;;;;27.15;17.13;;;10.50;99.40;;;;;;5075402;28;20041;-75
2023/01/02 04:57:22;;;;;;;27.23;16.48;;;10.60;99.10;;;;;;5075588;28;20037;-76
2023/01/02 04:59:47;;;;;;;21.10;13.95;;;10.60;99.20;;;;;;5058639;28;20400;-75
2023/01/02 05:02:13;;;;;;;17.60;11.57;;;10.60;99.20;;;;;;5075455;28;20044;-75
2023/01/02 05:04:39;;;;;;;21.30;14.40;;;10.60;99.20;;;;;;5075202;28;20372;-75
2023/01/02 05:07:05;;;;;;;19.10;13.45;;;10.60;99.10;;;;;;5075144;28;20048;-74
2023/01/02 05:09:31;;;;;;;17.17;12.35;;;10.60;99.00;;;;;;5075024;28;20091;-74
2023/01/02 05:11:57;;;;;;;23.02;15.25;;;10.70;99.00;;;;;;5075021;28;20040;-75
2023/01/02 05:14:23;;;;;;;21.15;13.27;;;10.60;98.90;;;;;;5058374;28;20059;-73
2023/01/02 05:16:49;;;;;;;16.88;13.32;;;10.60;99.00;;;;;;5074940;28;20076;-76
2023/01/02 05:19:14;;;;;;;19.83;14.73;;;10.60;99.00;;;;;;5074898;28;20072;-74
2023/01/02 05:24:25;;;;;;;19.95;13.82;;;10.50;99.10;;;;;;5074858;28;20603;-74
2023/01/02 05:26:54;;;;;;;20.13;13.60;;;10.50;99.10;;;;;;5074755;28;20044;-75
2023/01/02 05:29:20;;;;;;;17.88;13.80;;;10.50;99.00;;;;;;5074691;28;20377;-74
2023/01/02 05:31:46;;;;;;;18.08;13.55;;;10.50;99.10;;;;;;5074690;28;20074;-74
2023/01/02 05:34:13;;;;;;;18.38;13.45;;;10.50;99.00;;;;;;5074628;28;20476;-72
2023/01/02 05:36:40;;;;;;;16.30;12.25;;;10.50;99.10;;;;;;5074592;28;20040;-72
2023/01/02 05:39:13;;;;;;;16.27;11.60;;;10.50;99.10;;;;;;5074581;28;20408;-74
2023/01/02 05:41:42;;;;;;;18.10;13.60;;;10.50;99.10;;;;;;5074657;28;20520;-74
2023/01/02 05:44:09;;;;;;;19.05;12.65;;;10.40;99.10;;;;;;5074680;28;20060;-73
2023/01/02 05:46:36;;;;;;;19.10;14.23;;;10.40;99.00;;;;;;5057774;28;20051;-75
2023/01/02 05:49:06;;;;;;;20.33;14.23;;;10.50;99.00;;;;;;5074404;28;20041;-75
2023/01/02 05:51:32;;;;;;;18.10;12.43;;;10.40;99.00;;;;;;5074589;28;20476;-71
2023/01/02 05:53:58;;;;;;;19.58;13.13;;;10.40;99.00;;;;;;5074211;28;20401;-72
2023/01/02 05:56:26;;;;;;;18.20;12.55;;;10.40;98.90;;;;;;5074420;28;20044;-73
2023/01/02 05:58:52;;;;;;;25.83;14.02;;;10.30;98.80;;;;;;5074177;28;20053;-72
2023/01/02 06:01:26;;;;;;;25.02;14.75;;;10.30;98.60;;;;;;5040825;28;20041;-74
2023/01/02 06:03:53;;;;;;;;;;;10.20;98.50;;;;;;5074473;28;20045;-73
2023/01/02 06:06:24;;;;;;;27.58;14.75;;;10.10;98.40;;;;;;5074260;28;20368;-75
2023/01/02 06:08:50;;;;;;;22.75;11.82;;;10.00;98.30;;;;;;5074069;28;20052;-74
2023/01/02 06:11:16;;;;;;;14.35;8.90;;;9.80;98.00;;;;;;5073938;28;20040;-75
2023/01/02 06:13:42;;;;;;;14.68;6.60;;;9.50;97.70;;;;;;5073824;28;20395;-73
2023/01/02 06:16:09;;;;;;;8.38;4.13;;;9.40;97.70;;;;;;5074011;28;20040;-73
2023/01/02 06:18:37;;;;;;;6.68;3.88;;;9.30;97.50;;;;;;5073960;28;20557;-74
2023/01/02 06:21:06;;;;;;;9.68;3.80;;;9.10;97.40;;;;;;5074072;28;20040;-75
2023/01/02 06:23:31;;;;;;;8.90;3.90;;;9.00;97.60;;;;;;5056753;28;20060;-71
2023/01/02 06:26:11;;;;;;;8.95;3.97;;;8.90;97.60;;;;;;5073923;28;20127;-72
2023/01/02 06:28:37;;;;;;;6.68;2.70;;;8.80;97.70;;;;;;5073652;28;20493;-73
2023/01/02 06:31:14;;;;;;;5.05;2.10;;;8.80;97.80;;;;;;5073844;28;20047;-75
2023/01/02 06:33:41;;;;;;;4.10;2.15;;;8.80;97.80;;;;;;5057104;28;20047;-72
2023/01/02 06:36:12;;;;;;;5.88;1.30;;;8.70;97.60;;;;;;5073699;28;20067;-72
2023/01/02 06:38:38;;;;;;;3.88;1.40;;;8.60;97.80;;;;;;5073388;28;20037;-75
2023/01/02 06:41:05;;;;;;;3.28;1.50;;;8.60;97.80;;;;;;5073387;28;20048;-72
2023/01/02 06:43:32;;;;;;;4.18;1.80;;;8.50;97.80;;;;;;5073133;28;20075;-73
2023/01/02 06:46:00;;;;;;;3.38;1.55;;;8.50;97.90;;;;;;5073696;28;20408;-73
2023/01/02 06:48:26;;;;;;;3.08;1.08;;;8.40;97.90;;;;;;5073558;28;20049;-72
2023/01/02 06:50:55;;;;;;;2.47;0.95;;;8.40;98.00;;;;;;5073867;28;20040;-72
2023/01/02 06:53:21;;;;;;;1.27;0.82;;;8.40;98.00;;;;;;5073483;28;20174;-72
2023/01/02 06:55:51;;;;;;;4.68;0.95;;;8.40;98.00;;;;;;5056849;28;20068;-73
2023/01/02 06:58:17;;;;;;;3.10;1.42;;;8.40;98.00;;;;;;5073520;28;20404;-74
2023/01/02 07:00:42;;;;;;;5.18;1.25;;;8.30;98.10;;;;;;5073498;28;20127;-74
2023/01/02 07:03:08;;;;;;;2.70;0.98;;;8.30;98.00;;;;;;5072944;28;20141;-73
2023/01/02 07:05:34;;;;;;;3.20;1.20;;;8.30;98.00;;;;;;5071088;28;20098;-73
2023/01/02 07:07:59;;;;;;;4.40;1.20;;;8.40;98.00;;;;;;5071105;28;20049;-73
2023/01/02 07:10:25;;;;;;;2.63;1.27;;;8.30;97.90;;;;;;5071865;28;20040;-72
2023/01/02 07:12:51;;;;;;;3.60;1.33;;;8.30;97.80;;;;;;5052280;28;20080;-73
2023/01/02 07:15:16;;;;;;;3.78;1.13;;;8.30;97.80;;;;;;5070906;28;20446;-71
2023/01/02 07:17:42;;;;;;;1.52;0.95;;;8.30;97.60;;;;;;5053683;28;20040;-73
2023/01/02 07:20:08;;;;;;;1.33;0.88;;;8.30;97.50;;;;;;5054461;28;20076;-71
2023/01/02 07:22:34;;;;;;;2.88;1.15;;;8.30;97.50;;;;;;5053740;28;20049;-74
2023/01/02 07:25:00;;;;;;;2.28;1.08;;;8.30;97.40;;;;;;5070916;28;20140;-73
2023/01/02 07:27:30;;;;;;;2.22;1.10;;;8.30;97.50;;;;;;5069504;28;20044;-73
2023/01/02 07:29:55;;;;;;;4.15;1.38;;;8.30;97.40;;;;;;5070384;28;20561;-75
2023/01/02 07:32:21;;;;;;;3.60;1.30;;;8.20;97.40;;;;;;5060501;28;20048;-74
2023/01/02 07:34:47;;;;;;;3.00;1.63;;;8.30;97.50;;;;;;5061613;28;20041;-75
2023/01/02 07:37:13;;;;;;;5.38;1.65;;;8.20;97.50;;;;;;5065067;28;20120;-72
2023/01/02 07:39:38;;;;;;;5.65;1.60;;;8.20;97.50;;;;;;5070650;28;20447;-75
2023/01/02 07:42:04;;;;;;;4.60;1.60;;;8.20;97.50;;;;;;5070555;28;20072;-72
2023/01/02 07:44:30;;;;;;;6.40;2.10;;;8.20;97.60;;;;;;5070565;28;20581;-75
2023/01/02 07:46:56;;;;;;;4.22;2.35;;;8.10;97.60;;;;;;5052355;28;20067;-72
2023/01/02 07:49:21;;;;;;;4.30;1.77;;;8.10;97.70;;;;;;5070334;28;20071;-73
2023/01/02 07:51:47;;;;;;;3.80;1.45;;;8.10;97.70;;;;;;5069993;28;20048;-73
2023/01/02 07:54:12;;;;;;;2.95;1.77;;;8.10;97.80;;;;;;5070175;28;20048;-73
2023/01/02 07:56:41;;;;;;;4.93;1.70;;;8.10;97.80;;;;;;5068953;28;20051;-73
2023/01/02 07:59:07;;;;;;;7.18;2.33;;;8.10;97.90;;;;;;5070276;28;20045;-72
2023/01/02 08:01:33;;;;;;;5.20;2.47;;;8.10;97.90;;;;;;5053071;28;20067;-74
2023/01/02 08:03:59;;;;;;;5.93;2.60;;;8.10;97.80;;;;;;5070451;28;20044;-73
2023/01/02 08:06:24;;;;;;;6.10;2.47;;;8.10;97.80;;;;;;5069326;28;20048;-71
2023/01/02 08:08:50;;;;;;;9.68;3.70;;;8.10;97.80;;;;;;5069385;28;20501;-72
2023/01/02 08:11:21;;;;;;;4.40;2.47;;;8.10;97.80;;;;;;5069783;28;20039;-73
2023/01/02 08:13:47;;;;;;;7.38;3.13;;;8.10;97.90;;;;;;5070069;28;20037;-72
2023/01/02 08:16:15;;;;;;;8.82;2.85;;;8.10;97.90;;;;;;5068729;28;20039;-72
2023/01/02 08:18:41;;;;;;;8.10;3.10;;;8.10;97.90;;;;;;5068742;28;20075;-72
2023/01/02 08:21:07;;;;;;;9.73;4.13;;;8.10;97.90;;;;;;5069725;28;20044;-71
2023/01/02 08:23:33;;;;;;;12.75;5.05;;;8.10;97.90;;;;;;5069704;28;20057;-72
2023/01/02 08:26:01;;;;;;;12.57;5.43;;;8.10;97.80;;;;;;5053213;28;20132;-73
2023/01/02 08:28:28;;;;;;;11.65;5.78;;;8.10;97.80;;;;;;5068280;28;20032;-74
2023/01/02 08:30:53;;;;;;;10.30;5.70;;;8.10;97.80;;;;;;5069215;28;20056;-72
2023/01/02 08:33:19;;;;;;;12.77;6.60;;;8.10;97.80;;;;;;5069229;28;20032;-72
2023/01/02 08:35:45;;;;;;;16.25;6.95;;;8.10;97.60;;;;;;5053239;28;20427;-72
2023/01/02 08:38:11;;;;;;;15.63;5.70;;;8.10;97.70;;;;;;5051840;28;20125;-74
2023/01/02 08:40:36;;;;;;;12.73;6.65;;;8.10;97.80;;;;;;5053191;28;20083;-72
2023/01/02 08:43:02;;;;;;;15.27;6.28;;;8.10;97.60;;;;;;5069469;28;20127;-71
2023/01/02 08:45:28;;;;;;;13.40;7.82;;;8.10;97.60;;;;;;5052460;28;20083;-72
2023/01/02 08:47:54;;;;;;;13.50;6.88;;;8.10;97.60;;;;;;5066167;28;20048;-75
2023/01/02 08:50:20;;;;;;;15.80;5.90;;;8.10;97.60;;;;;;5068165;28;20400;-73
2023/01/02 08:52:46;;;;;;;12.13;6.25;;;8.10;97.60;;;;;;5067957;28;20406;-74
2023/01/02 08:55:12;;;;;;;13.48;4.68;;;8.10;97.60;;;;;;5063813;28;20070;-75
2023/01/02 08:57:38;;;;;;;12.77;5.25;;;8.10;97.70;;;;;;5067629;28;20119;-74
2023/01/02 09:00:04;;;;;;;13.77;5.18;;;8.10;97.80;;;;;;5068963;28;20036;-73
2023/01/02 09:02:31;;;;;;;11.63;5.32;;;8.10;97.80;;;;;;5068671;28;20431;-74
2023/01/02 09:04:57;;;;;;;10.23;4.45;;;8.10;97.80;;;;;;5052006;28;20098;-74
2023/01/02 09:07:24;;;;;;;15.55;5.43;;;8.10;97.80;;;;;;5067333;28;20040;-72
2023/01/02 09:09:49;;;;;;;17.15;5.80;;;8.10;97.90;;;;;;5069644;28;20037;-72
2023/01/02 09:12:15;;;;;;;11.77;4.68;;;8.10;98.00;;;;;;5052485;28;20044;-72
2023/01/02 09:14:41;;;;;;;18.50;8.88;;;8.20;98.00;;;;;;5069473;28;20423;-74
2023/01/02 09:17:07;;;;;;;23.90;14.73;;;8.10;98.00;;;;;;5068162;28;20080;-73
2023/01/02 09:19:32;;;;;;;11.40;6.05;;;8.10;98.10;;;;;;5069619;28;20052;-72
2023/01/02 09:22:00;;;;;;;33.72;22.83;;;8.20;98.10;;;;;;5068948;28;20029;-72
2023/01/02 09:24:26;;;;;;;15.75;7.50;;;8.20;98.00;;;;;;5069227;28;20127;-75
2023/01/02 09:26:52;;;;;;;17.58;9.13;;;8.20;98.00;;;;;;5047080;28;20472;-72
2023/01/02 09:29:18;;;;;;;9.50;4.47;;;8.20;98.10;;;;;;5069408;28;20044;-74
2023/01/02 09:31:44;;;;;;;8.45;4.15;;;8.20;98.10;;;;;;5068790;28;20111;-74
2023/01/02 09:34:10;;;;;;;10.60;5.75;;;8.30;98.00;;;;;;5069336;28;20155;-74
2023/01/02 09:36:36;;;;;;;10.93;5.55;;;8.30;98.00;;;;;;5054833;28;20036;-73
2023/01/02 09:39:05;;;;;;;16.10;8.60;;;8.30;98.00;;;;;;5071779;28;20094;-75
2023/01/02 09:41:39;;;;;;;10.75;5.82;;;8.30;97.80;;;;;;5071980;28;20044;-73
2023/01/02 09:44:14;;;;;;;10.25;5.55;;;8.30;97.90;;;;;;5072744;28;20085;-73
2023/01/02 09:47:14;;;;;;;7.93;3.97;;;8.30;98.00;;;;;;5071411;28;20153;-73
2023/01/02 09:49:46;;;;;;;21.92;11.30;;;8.30;98.10;;;;;;5072637;28;20489;-75
2023/01/02 09:52:23;;;;;;;8.00;4.45;;;8.40;98.10;;;;;;5072118;28;20037;-73
2023/01/02 09:54:49;;;;;;;4.97;2.90;;;8.30;98.00;;;;;;5072804;28;20048;-74
2023/01/02 09:57:26;;;;;;;6.00;2.85;;;8.30;98.10;;;;;;5054707;28;20142;-72
2023/01/02 10:00:05;;;;;;;7.72;4.38;;;8.30;98.20;;;;;;5073528;28;20040;-74
2023/01/02 10:02:58;;;;;;;21.27;10.20;;;8.30;98.20;;;;;;5074314;28;20067;-73
2023/01/02 10:05:48;;;;;;;8.00;2.50;;;8.30;98.20;;;;;;5074375;28;20431;-74
2023/01/02 10:08:38;;;;;;;18.15;10.80;;;8.30;98.20;;;;;;5074243;28;20456;-72
2023/01/02 10:11:13;;;;;;;4.20;2.47;;;8.30;98.10;;;;;;5074004;28;20128;-74
2023/01/02 10:13:40;;;;;;;6.38;3.58;;;8.30;98.20;;;;;;5073904;28;20032;-75
2023/01/02 10:16:10;;;;;;;11.43;5.45;;;8.30;98.20;;;;;;5073918;28;20075;-75
2023/01/02 10:18:40;;;;;;;6.43;3.35;;;8.40;98.20;;;;;;5073914;28;20122;-74
2023/01/02 10:21:19;;;;;;;71.40;33.83;;;8.40;98.10;;;;;;5073654;28;20044;-72
2023/01/02 10:23:53;;;;;;;27.00;13.70;;;8.30;98.10;;;;;;5073505;28;20091;-72
2023/01/02 10:26:23;;;;;;;7.57;2.90;;;8.30;98.20;;;;;;5074028;28;20045;-74
2023/01/02 10:28:59;;;;;;;6.72;3.60;;;8.40;98.10;;;;;;5073635;28;20044;-72
2023/01/02 10:31:49;;;;;;;10.73;4.20;;;8.30;98.00;;;;;;5073593;28;20068;-73
2023/01/02 10:34:22;;;;;;;5.72;2.88;;;8.30;98.10;;;;;;5073428;28;20036;-74
2023/01/02 10:36:49;;;;;;;8.68;2.63;;;8.20;98.00;;;;;;5073872;28;20044;-74
2023/01/02 10:39:24;;;;;;;7.57;1.90;;;8.20;98.00;;;;;;5056780;28;20047;-75
2023/01/02 10:41:57;;;;;;;7.60;2.60;;;8.20;98.00;;;;;;5073659;28;20103;-75
2023/01/02 10:44:33;;;;;;;9.20;3.35;;;8.20;98.10;;;;;;5056508;28;20051;-76
2023/01/02 10:47:14;;;;;;;8.82;3.03;;;8.20;98.10;;;;;;5072530;28;20048;-72
2023/01/02 10:49:42;;;;;;;15.68;7.50;;;8.10;98.10;;;;;;5073312;28;20036;-74
2023/01/02 10:52:26;;;;;;;14.43;5.05;;;8.20;98.10;;;;;;5073166;28;20484;-73
2023/01/02 10:54:56;;;;;;;8.00;2.60;;;8.20;98.10;;;;;;5056559;28;20263;-75
2023/01/02 10:57:41;;;;;;;7.82;1.63;;;8.20;98.00;;;;;;5068892;28;20036;-75
2023/01/02 11:00:25;;;;;;;4.88;1.55;;;8.30;97.90;;;;;;5073183;28;20040;-73
2023/01/02 11:02:54;;;;;;;8.70;2.53;;;8.30;97.70;;;;;;5072935;28;20526;-75
2023/01/02 11:05:28;;;;;;;8.82;2.55;;;8.30;97.70;;;;;;5073185;28;20050;-74
2023/01/02 11:07:54;;;;;;;;;;;8.30;97.60;;;;;;5073548;28;20127;-75
2023/01/02 11:10:29;;;;;;;7.38;1.80;;;8.30;97.40;;;;;;5072777;28;20022;-74
2023/01/02 11:12:55;;;;;;;16.83;6.45;;;8.30;97.40;;;;;;5072905;28;20056;-74
2023/01/02 11:15:34;;;;;;;9.15;2.97;;;8.30;97.40;;;;;;5072658;28;20045;-76
2023/01/02 11:18:02;;;;;;;5.75;1.90;;;8.30;97.40;;;;;;5073231;28;20547;-78
2023/01/02 11:20:34;;;;;;;13.70;3.50;;;8.40;97.10;;;;;;5072599;28;20048;-75
2023/01/02 11:23:02;;;;;;;7.22;3.20;;;8.30;97.10;;;;;;5072333;28;20060;-74
2023/01/02 11:25:37;;;;;;;13.07;2.60;;;8.40;97.30;;;;;;5072757;28;20064;-76
2023/01/02 11:28:03;;;;;;;8.15;2.28;;;8.40;97.10;;;;;;5055867;28;20041;-75
2023/01/02 11:30:37;;;;;;;9.65;1.85;;;8.50;97.10;;;;;;5072841;28;20111;-75
2023/01/02 11:33:16;;;;;;;9.25;3.08;;;8.50;97.10;;;;;;5072101;28;20036;-74
2023/01/02 11:35:55;;;;;;;5.25;2.05;;;8.50;97.10;;;;;;5072385;28;20111;-75
2023/01/02 11:38:24;;;;;;;12.95;3.97;;;8.50;97.00;;;;;;5072272;28;20386;-75
2023/01/02 11:41:01;;;;;;;7.65;2.10;;;8.60;96.90;;;;;;5072277;28;20083;-75
2023/01/02 11:43:51;;;;;;;7.85;1.70;;;8.70;96.80;;;;;;5072211;28;20051;-74
2023/01/02 11:46:33;;;;;;;9.57;2.00;;;8.70;96.60;;;;;;5072516;28;20045;-77
2023/01/02 11:49:22;;;;;;;12.10;3.95;;;8.70;96.40;;;;;;5072267;28;20439;-77
2023/01/02 11:52:00;;;;;;;5.35;1.98;;;8.80;96.50;;;;;;5072108;28;20036;-76
2023/01/02 11:54:46;;;;;;;15.02;3.78;;;8.70;96.40;;;;;;5072024;28;20093;-75
2023/01/02 11:57:28;;;;;;;10.38;2.78;;;8.80;96.30;;;;;;5071814;28;20048;-75
2023/01/02 11:59:56;;;;;;;10.88;1.98;;;8.90;96.00;;;;;;5072013;28;20044;-76
2023/01/02 12:02:50;;;;;;;11.93;2.60;;;8.90;96.00;;;;;;5072231;28;20048;-75
2023/01/02 12:05:27;;;;;;;12.15;2.53;;;9.00;96.00;;;;;;5070953;28;20051;-74
2023/01/02 12:08:05;;;;;;;8.88;1.95;;;8.90;95.90;;;;;;5071899;28;20123;-76
2023/01/02 12:10:56;;;;;;;7.93;1.95;;;8.90;95.80;;;;;;5055264;28;20489;-76
2023/01/02 12:13:42;;;;;;;7.85;2.42;;;9.00;95.70;;;;;;5071744;28;20041;-76
2023/01/02 12:16:26;;;;;;;12.27;3.38;;;9.00;95.70;;;;;;5071816;28;20049;-75
2023/01/02 12:19:22;;;;;;;10.80;2.85;;;9.00;95.60;;;;;;5072059;28;20045;-76
2023/01/02 12:22:10;;;;;;;11.95;3.03;;;9.00;95.60;;;;;;5071987;28;20048;-74
2023/01/02 12:24:39;;;;;;;6.85;1.90;;;9.00;95.70;;;;;;5054886;28;20056;-73
2023/01/02 12:27:14;;;;;;;12.63;3.15;;;9.00;95.40;;;;;;5055261;28;20040;-73
2023/01/02 12:30:14;;;;;;;9.75;2.63;;;8.90;95.40;;;;;;5054873;28;20048;-74
2023/01/02 12:32:58;;;;;;;10.75;2.75;;;9.00;95.60;;;;;;5071850;28;20070;-74
2023/01/02 12:36:01;;;;;;;10.20;2.63;;;9.00;95.70;;;;;;5071910;28;20127;-75
2023/01/02 12:38:39;;;;;;;9.07;2.13;;;9.00;95.50;;;;;;5071524;28;20311;-75
2023/01/02 12:41:43;;;;;;;16.25;2.67;;;9.00;95.70;;;;;;5071832;28;20361;-77
2023/01/02 12:44:12;;;;;;;16.30;2.55;;;9.00;95.70;;;;;;5071442;28;20157;-74
2023/01/02 12:47:00;;;;;;;13.07;2.33;;;9.00;95.70;;;;;;5054836;28;20044;-76
2023/01/02 12:49:40;;;;;;;11.52;2.75;;;9.00;95.60;;;;;;5071609;28;20041;-75
2023/01/02 12:52:28;;;;;;;16.20;3.72;;;9.10;95.70;;;;;;5071866;28;20033;-76
2023/01/02 12:55:17;;;;;;;14.40;3.38;;;9.10;95.50;;;;;;5071462;28;20033;-74
2023/01/02 12:57:51;;;;;;;12.75;2.92;;;9.00;95.50;;;;;;5068684;28;20060;-75
2023/01/02 13:00:31;;;;;;;14.18;3.25;;;9.10;95.60;;;;;;5071511;28;20079;-73
2023/01/02 13:03:28;;;;;;;17.13;3.65;;;9.10;95.50;;;;;;5071746;28;20392;-73
2023/01/02 13:06:02;;;;;;;11.95;3.03;;;9.10;95.30;;;;;;5054060;28;20063;-76
2023/01/02 13:08:33;;;;;;;13.68;3.13;;;9.00;95.20;;;;;;5054649;28;20040;-77
2023/01/02 13:11:03;;;;;;;9.30;2.80;;;9.00;95.20;;;;;;5074227;28;20043;-75
2023/01/02 13:13:34;;;;;;;12.63;3.40;;;9.00;95.30;;;;;;5076357;28;20044;-74